Oak Hammock Air Park

CAV9 · 曼尼托巴, 加拿大

罗盘
风向 的 风向 230°
风: 13 kt, 4 beaufort

添加一条跑道以查看侧风和逆风信息。

添置 跑道
0 5.000 10.000 15.000 20.000
OVC 15.000 ft
METAR CYWG 040100Z 23013KT 15SM OVC150 M15/M19 A3005 RMK AS8 SLP202

METAR Oak Hammock Air Park - CAV9

Oak Hammock Air Park是,加拿大中的小机场。 视场标高为755 ft。 该领域的国际民航组织标志是CAV9.

这份报告是针对2022年12月3日 19:00, 当地时间在Winnipeg / James Armstrong Richardson International Airport进行的。

机场观察

风向为230°,速度为13 kt。

可见度为15 mi。

有乌云密布在15.000 ft的高度。 破损或更高的上限为15.000 ft。

温度为-15 °C,阵风为-28 °C。 露点为-19 °C,相对湿度为72%。 海平面上的气压为30,05 inHg (QNH)。

白天

今天,太阳从08:09升起,在16:27降落。 这适用于Oak Hammock Air Park,世界夏令时可能有所不同。 当地时间与世界标准时间之间的时差为-6 小时。 当前,没有夏令时有效。

公司介绍

我们没有关于这个机场的公司信息。

体会

到Vliegles.nl去找飞行课程,跳伞和其他飞行体验。 浏览页面,了解Oak Hammock Air Park附近所有可用的活动。 你也可以使用搜索功能来寻找你所在地附近的特定飞行课程、跳伞或其他飞行体验。

乌云

15.000 ft OVC 乌云密布

温度 & 天气

温度 -15 °C
露点 -19 °C
相对湿度 72%
风寒 -28 °C
Kp-index 1 (0-9)

评论

SLP202海平面压力为30,13 inHg (30,13 inHg)
AS8

白天

日出
08:09 (12:48)
中午
12:19
日落
16:29

小工具

你想在你的网站上有一个关于Oak Hammock Air Park的当前航空天气(METAR)的小部件吗?

显示HTML代码

我们和第三方通过cookies跟踪您在我们网站上的互联网行为。如果你继续,我们认为你同意我们的饼干政策